Portada
METAR-TAF:

METAR-TAF

Aeroports :

Guiyang, Xina

latitud: 26-32-19N, longitud: 106-48-03E, altitud: 1139 m

Observació

L'informe es va fer fa 45 minuts, a les 02:00 UTC
Vent 4 kt del Nord/Nord-Oest, variant entre Nord-Oest i Nord/Nord-Est
Temperatura 18°C
Humitat 64%
Pressió 1028 hPa
Visibilitat 10 km o més
sense núvols per sota de 1500 mi sense presència de cumulonimbus.

METAR: ZUGY 230200Z 34002MPS 310V020 CAVOK 18/11 Q1028 NOSIG

Hora: 10:45 (02:45 UTC)

Pronòstic

L'informe es va fer fa 7 hores i 36 minuts, a les 19:09 UTC
Pronòstic vàlid del 23 a les 00 UTC al 23 a les 24 UTC
Vent 6 kt del Nord-Est
Visibilitat: 5000 m
Escasses núvols a una alçada de 3000 ft
boirina

TAF: ZUGY 221909Z 2300/2324 05003MPS 5000 BR FEW030 TX23/2307Z TN09/2322Z

Observacions i pronòstics meteorològics de més de 4000 aeroports (METAR i TAF).

Les estacions disponibles són els punts grocs i vermells al mapa.

Posi el ratolí al punt desitjat per veure el nom de l'estació.

Feu clic per veure les observacions i els pronòstics meteorològics.

Per canviar el mapa: feu clic els botons verds amb una creu de color negre per apropar; al botó verd amb un guió per allunyar la imatge; o en les fletxes verdes per a mapes adjacents.


METAR-TAF: